Time;durP1;ratioP1;P1;durP2;ratioP2;P2;SDS_P1;SDS_P2;PMS_P1;PMS_P2;Temp;Humidity;BMP_temperature;BMP_pressure;BME280_temperature;BME280_humidity;BME280_pressure;Samples;Min_cycle;Max_cycle;Signal;HPM_P1;HPM_P2
2022/07/13 00:00:38;;;;;;;1.80;1.70;;;;;;;23.95;55.15;101462.47;5092381;28;20043;-78
2022/07/13 00:03:07;;;;;;;1.88;1.65;;;;;;;23.91;55.36;101467.94;5089261;28;20055;-77
2022/07/13 00:05:35;;;;;;;2.97;1.80;;;;;;;23.86;55.42;101466.19;5101369;28;20051;-78
2022/07/13 00:08:03;;;;;;;2.17;1.60;;;;;;;23.83;55.23;101466.91;5113842;28;20059;-78
2022/07/13 00:10:31;;;;;;;3.55;2.17;;;;;;;23.82;55.30;101461.66;5110491;28;20043;-78
2022/07/13 00:12:59;;;;;;;2.85;1.98;;;;;;;23.82;55.94;101464.44;5094630;28;20044;-78
2022/07/13 00:15:27;;;;;;;2.00;1.90;;;;;;;23.84;55.35;101478.88;5112354;28;20058;-78
2022/07/13 00:17:55;;;;;;;2.30;2.10;;;;;;;23.87;55.91;101473.41;5112071;28;20055;-78
2022/07/13 00:20:23;;;;;;;2.25;2.05;;;;;;;23.84;55.47;101471.31;5112202;28;20051;-78
2022/07/13 00:22:51;;;;;;;4.07;2.17;;;;;;;23.77;55.73;101471.09;5083789;28;20391;-78
2022/07/13 00:25:21;;;;;;;1.55;1.45;;;;;;;23.81;55.51;101474.81;5108073;28;20052;-78
2022/07/13 00:27:49;;;;;;;2.00;1.90;;;;;;;23.79;55.82;101482.72;5112062;28;20070;-78
2022/07/13 00:30:17;;;;;;;1.60;1.50;;;;;;;23.74;56.01;101480.16;5081971;28;20060;-78
2022/07/13 00:32:45;;;;;;;4.35;1.52;;;;;;;23.74;56.56;101478.19;5093114;28;20036;-78
2022/07/13 00:35:13;;;;;;;2.10;1.40;;;;;;;23.74;56.78;101480.16;5112899;28;20056;-78
2022/07/13 00:37:43;;;;;;;2.05;1.58;;;;;;;23.74;56.05;101466.19;5112419;28;20807;-78
2022/07/13 00:40:12;;;;;;;1.30;1.20;;;;;;;23.81;55.98;101471.19;5112265;28;20039;-78
2022/07/13 00:42:40;;;;;;;2.90;1.77;;;;;;;23.84;55.76;101474.09;5111275;28;20486;-78
2022/07/13 00:45:08;;;;;;;2.65;1.70;;;;;;;23.82;55.73;101468.06;5100183;28;20063;-78
2022/07/13 00:47:37;;;;;;;1.90;1.80;;;;;;;23.81;55.92;101463.66;5111163;28;20059;-78
2022/07/13 00:50:06;;;;;;;1.83;1.48;;;;;;;23.76;56.12;101463.88;5085559;28;20049;-78
2022/07/13 00:52:36;;;;;;;2.13;1.92;;;;;;;23.84;56.15;101462.94;5064105;28;20033;-78
2022/07/13 00:55:08;;;;;;;2.92;1.80;;;;;;;23.73;56.07;101465.38;5091248;28;20044;-78
2022/07/13 00:57:38;;;;;;;1.88;1.77;;;;;;;23.71;56.46;101464.09;5091595;28;20615;-78
2022/07/13 01:00:10;;;;;;;2.97;2.15;;;;;;;23.60;56.63;101466.53;5073334;28;20074;-78
2022/07/13 01:02:43;;;;;;;2.00;1.80;;;;;;;23.60;57.06;101460.94;5092060;28;20050;-77
2022/07/13 01:05:13;;;;;;;2.53;2.33;;;;;;;23.69;56.71;101461.66;5091234;28;20056;-77
2022/07/13 01:07:41;;;;;;;2.45;2.00;;;;;;;23.55;57.43;101463.97;5092091;28;20059;-78
2022/07/13 01:10:10;;;;;;;2.72;2.10;;;;;;;23.50;58.23;101470.59;5090895;28;20052;-78
2022/07/13 01:12:40;;;;;;;3.05;2.00;;;;;;;23.40;58.09;101471.06;5073812;28;20055;-78
2022/07/13 01:15:09;;;;;;;2.47;2.28;;;;;;;23.32;57.98;101465.22;5073830;28;20406;-78
2022/07/13 01:17:38;;;;;;;2.60;2.40;;;;;;;23.24;58.26;101457.72;5073330;28;20055;-78
2022/07/13 01:20:08;;;;;;;3.13;2.38;;;;;;;23.23;59.12;101462.50;5090784;28;20056;-78
2022/07/13 01:22:45;;;;;;;1.80;1.70;;;;;;;23.25;58.62;101461.34;5066442;28;20040;-78
2022/07/13 01:25:14;;;;;;;1.98;1.80;;;;;;;23.21;58.66;101464.00;5084532;28;20044;-78
2022/07/13 01:27:44;;;;;;;2.38;2.10;;;;;;;23.26;58.35;101454.59;5073690;28;20493;-77
2022/07/13 01:30:12;;;;;;;1.80;1.70;;;;;;;23.26;58.34;101458.19;5091130;28;20044;-78
2022/07/13 01:32:48;;;;;;;3.70;1.88;;;;;;;23.26;58.69;101460.97;5080851;28;20062;-79
2022/07/13 01:35:19;;;;;;;2.03;1.88;;;;;;;23.34;58.00;101459.28;5100377;28;20067;-78
2022/07/13 01:37:47;;;;;;;4.03;1.77;;;;;;;23.32;58.65;101458.84;5085286;28;20048;-79
2022/07/13 01:40:17;;;;;;;1.98;1.42;;;;;;;23.32;58.23;101462.44;5091709;28;20406;-78
2022/07/13 01:42:50;;;;;;;2.50;2.08;;;;;;;23.33;58.73;101461.28;5073718;28;20047;-78
2022/07/13 01:45:24;;;;;;;3.92;2.17;;;;;;;23.34;58.30;101467.66;5070999;28;20405;-78
2022/07/13 01:47:54;;;;;;;2.17;1.70;;;;;;;23.41;58.38;101462.31;5091315;28;20052;-79
2022/07/13 01:50:27;;;;;;;5.57;1.60;;;;;;;23.34;58.33;101473.25;5087720;28;20056;-79
2022/07/13 01:52:56;;;;;;;2.53;1.40;;;;;;;23.29;58.37;101465.06;5090596;28;20391;-79
2022/07/13 01:55:24;;;;;;;2.88;1.75;;;;;;;23.27;58.43;101468.19;5068416;28;20059;-78
2022/07/13 01:57:59;;;;;;;1.40;1.30;;;;;;;23.25;58.50;101453.78;5094706;28;20052;-78
2022/07/13 02:00:29;;;;;;;2.35;1.80;;;;;;;23.34;58.42;101462.09;5060396;28;20058;-79
2022/07/13 02:02:57;;;;;;;2.25;1.60;;;;;;;23.23;59.36;101461.69;5076506;28;20044;-78
2022/07/13 02:05:27;;;;;;;2.28;2.00;;;;;;;23.19;59.07;101469.13;5094215;28;20048;-78
2022/07/13 02:07:55;;;;;;;6.70;2.25;;;;;;;23.15;59.98;101470.97;5094295;28;20067;-79
2022/07/13 02:10:36;;;;;;;2.38;2.17;;;;;;;23.08;59.66;101463.97;5076661;28;20043;-78
2022/07/13 02:13:13;;;;;;;2.30;1.95;;;;;;;23.11;59.95;101458.88;5076464;28;20391;-79
2022/07/13 02:15:42;;;;;;;3.50;1.75;;;;;;;23.07;59.65;101458.75;5076087;28;20048;-78
2022/07/13 02:18:10;;;;;;;3.05;1.80;;;;;;;23.11;59.23;101458.88;5093979;28;20048;-78
2022/07/13 02:20:39;;;;;;;4.05;2.17;;;;;;;23.05;59.42;101464.69;5089957;28;20052;-78
2022/07/13 02:23:06;;;;;;;2.88;1.90;;;;;;;23.08;59.40;101458.38;5056302;28;20068;-78
2022/07/13 02:25:35;;;;;;;2.15;1.80;;;;;;;22.98;59.60;101458.00;5089941;28;20521;-78
2022/07/13 02:28:06;;;;;;;2.92;1.95;;;;;;;22.95;60.06;101459.53;5068025;28;20131;-78
2022/07/13 02:30:34;;;;;;;5.53;2.22;;;;;;;22.92;60.44;101463.00;5109666;28;20047;-78
2022/07/13 02:33:02;;;;;;;3.53;2.40;;;;;;;22.86;60.88;101459.59;5084975;28;20044;-78
2022/07/13 02:35:30;;;;;;;3.33;2.58;;;;;;;22.91;60.98;101466.94;5093923;28;20052;-78
2022/07/13 02:37:59;;;;;;;2.38;2.17;;;;;;;22.85;60.86;101463.56;5075301;28;20052;-78
2022/07/13 02:40:27;;;;;;;2.03;1.85;;;;;;;22.99;60.38;101457.69;5094029;28;20045;-78
2022/07/13 02:42:56;;;;;;;3.85;2.55;;;;;;;22.91;60.51;101455.78;5076294;28;20051;-78
2022/07/13 02:45:24;;;;;;;2.80;2.17;;;;;;;22.85;61.18;101460.78;5056936;28;20045;-78
2022/07/13 02:47:55;;;;;;;2.58;2.33;;;;;;;22.80;61.82;101458.19;5076192;28;20056;-78
2022/07/13 02:50:22;;;;;;;2.70;2.00;;;;;;;22.83;60.51;101460.31;5068897;28;20075;-78
2022/07/13 02:52:53;;;;;;;3.83;2.22;;;;;;;22.87;60.44;101460.44;5086978;28;20056;-78
2022/07/13 02:55:22;;;;;;;3.75;2.30;;;;;;;22.79;60.52;101456.56;5075540;28;20044;-78
2022/07/13 02:57:50;;;;;;;1.92;1.75;;;;;;;22.85;59.85;101454.34;5076108;28;20040;-78
2022/07/13 03:00:18;;;;;;;2.45;2.03;;;;;;;22.89;59.26;101455.31;5075184;28;20039;-78
2022/07/13 03:02:46;;;;;;;1.73;1.60;;;;;;;22.87;59.76;101452.84;5075890;28;20788;-78
2022/07/13 03:05:15;;;;;;;2.17;1.75;;;;;;;23.04;57.36;101460.25;5076075;28;20062;-78
2022/07/13 03:07:43;;;;;;;1.88;1.77;;;;;;;23.04;56.30;101454.69;5074896;28;20054;-78
2022/07/13 03:10:13;;;;;;;2.45;1.67;;;;;;;23.07;57.59;101453.97;5075280;28;20044;-78
2022/07/13 03:12:42;;;;;;;2.25;1.80;;;;;;;22.90;58.99;101457.78;5075592;28;20506;-78
2022/07/13 03:15:10;;;;;;;2.60;2.00;;;;;;;22.77;60.55;101456.91;5093242;28;20048;-78
2022/07/13 03:17:40;;;;;;;2.05;1.85;;;;;;;22.54;61.89;101462.84;5075351;28;20051;-78
2022/07/13 03:20:11;;;;;;;3.35;1.90;;;;;;;22.41;62.31;101461.94;5075974;28;20047;-78
2022/07/13 03:22:39;;;;;;;3.22;2.20;;;;;;;22.38;62.56;101461.81;5075909;28;20043;-78
2022/07/13 03:25:08;;;;;;;2.05;1.77;;;;;;;22.39;62.74;101477.38;5075774;28;20044;-78
2022/07/13 03:27:36;;;;;;;5.45;2.22;;;;;;;22.25;63.66;101470.06;5075212;28;20513;-78
2022/07/13 03:30:06;;;;;;;2.53;2.30;;;;;;;22.24;62.72;101476.81;5066970;28;20049;-78
2022/07/13 03:32:34;;;;;;;2.78;1.95;;;;;;;22.25;63.08;101484.00;5090935;28;20051;-78
2022/07/13 03:35:02;;;;;;;3.67;2.15;;;;;;;22.27;62.94;101489.25;5071625;28;20071;-78
2022/07/13 03:37:31;;;;;;;2.05;1.85;;;;;;;22.21;63.75;101491.44;5075332;28;20410;-78
2022/07/13 03:39:59;;;;;;;4.65;1.98;;;;;;;22.22;63.67;101487.50;5067144;28;20530;-78
2022/07/13 03:42:27;;;;;;;2.63;1.73;;;;;;;22.23;64.61;101493.88;5074743;28;20036;-78
2022/07/13 03:44:55;;;;;;;2.30;2.03;;;;;;;22.37;64.82;101493.63;5074776;28;20040;-78
2022/07/13 03:47:23;;;;;;;3.92;2.03;;;;;;;22.40;64.93;101502.09;5069805;28;20052;-78
2022/07/13 03:49:51;;;;;;;3.33;2.58;;;;;;;22.40;64.79;101501.31;5072684;28;20051;-78
2022/07/13 03:52:21;;;;;;;4.40;2.75;;;;;;;22.32;65.77;101510.53;5063923;28;20044;-78
2022/07/13 03:54:48;;;;;;;4.68;3.50;;;;;;;22.22;66.88;101507.00;5092496;28;20502;-78
2022/07/13 03:57:16;;;;;;;3.55;3.22;;;;;;;22.08;67.58;101510.03;5092341;28;20487;-78
2022/07/13 03:59:44;;;;;;;3.35;3.05;;;;;;;22.01;68.42;101516.13;5074301;28;20048;-78
2022/07/13 04:02:15;;;;;;;5.38;3.15;;;;;;;22.01;68.50;101521.69;5062433;28;20490;-78
2022/07/13 04:04:44;;;;;;;5.28;3.33;;;;;;;22.09;68.48;101516.44;5074294;28;20048;-78
2022/07/13 04:07:12;;;;;;;4.80;3.55;;;;;;;22.24;67.69;101515.84;5073965;28;20051;-78
2022/07/13 04:09:40;;;;;;;3.95;3.35;;;;;;;22.32;67.77;101521.69;5074071;28;20474;-78
2022/07/13 04:12:09;;;;;;;3.97;3.22;;;;;;;22.27;67.80;101526.31;5074219;28;20040;-78
2022/07/13 04:14:38;;;;;;;5.05;3.28;;;;;;;22.27;68.04;101517.97;5073663;28;20031;-78
2022/07/13 04:17:06;;;;;;;3.47;3.17;;;;;;;22.31;68.64;101528.44;5073912;28;20509;-78
2022/07/13 04:19:34;;;;;;;3.20;2.83;;;;;;;22.24;68.83;101526.19;5094093;28;20048;-78
2022/07/13 04:22:01;;;;;;;4.28;2.90;;;;;;;22.22;69.58;101537.66;5091386;28;20048;-79
2022/07/13 04:24:33;;;;;;;3.75;2.83;;;;;;;22.34;69.12;101530.56;5094935;28;20038;-78
2022/07/13 04:27:02;;;;;;;3.10;2.90;;;;;;;22.23;69.36;101535.69;5094084;28;20070;-78
2022/07/13 04:29:30;;;;;;;2.47;2.28;;;;;;;22.32;69.44;101541.19;5106175;28;20055;-77
2022/07/13 04:31:58;;;;;;;3.17;2.88;;;;;;;22.38;69.08;101545.47;5082792;28;20055;-78
2022/07/13 04:34:26;;;;;;;4.10;3.05;;;;;;;22.51;68.37;101547.16;5093555;28;20056;-77
2022/07/13 04:36:55;;;;;;;5.05;3.30;;;;;;;22.51;68.81;101549.13;5091425;28;20052;-77
2022/07/13 04:39:25;;;;;;;3.47;2.90;;;;;;;22.49;68.86;101545.88;5091156;28;20407;-77
2022/07/13 04:41:53;;;;;;;5.82;2.63;;;;;;;22.77;67.58;101551.75;5074270;28;20052;-77
2022/07/13 04:44:22;;;;;;;2.95;2.65;;;;;;;23.07;66.43;101553.66;5073990;28;20475;-77
2022/07/13 04:46:49;;;;;;;2.67;2.42;;;;;;;23.27;65.86;101556.75;5069160;28;20052;-78
2022/07/13 04:49:19;;;;;;;3.92;2.70;;;;;;;23.31;65.32;101569.69;5073205;28;20040;-81
2022/07/13 04:51:50;;;;;;;5.43;2.72;;;;;;;23.61;64.18;101566.75;5035385;28;20053;-81
2022/07/13 04:54:20;;;;;;;2.88;2.60;;;;;;;23.95;62.93;101563.09;5036800;28;20040;-82
2022/07/13 04:56:48;;;;;;;2.75;2.55;;;;;;;24.10;62.69;101570.78;5054484;28;20497;-82
2022/07/13 04:59:18;;;;;;;8.82;2.80;;;;;;;24.23;61.86;101573.59;5057270;28;20394;-82
2022/07/13 05:01:46;;;;;;;5.07;2.90;;;;;;;24.00;62.57;101585.22;5046962;28;20407;-82
2022/07/13 05:04:14;;;;;;;2.92;1.85;;;;;;;24.06;62.30;101586.63;5035547;28;20056;-82
2022/07/13 05:06:43;;;;;;;3.78;2.42;;;;;;;24.07;62.44;101579.91;5038299;28;20048;-83
2022/07/13 05:09:11;;;;;;;3.72;2.10;;;;;;;24.23;61.82;101585.59;5064586;28;20041;-84
2022/07/13 05:11:40;;;;;;;3.88;2.55;;;;;;;23.86;63.03;101594.75;5071979;28;20051;-83
2022/07/13 05:14:09;;;;;;;3.53;2.65;;;;;;;23.83;63.28;101595.44;5067342;28;20037;-84
2022/07/13 05:16:38;;;;;;;2.58;2.20;;;;;;;23.81;63.14;101595.00;5056018;28;20398;-83
2022/07/13 05:19:06;;;;;;;2.53;2.30;;;;;;;23.71;63.54;101603.81;5066653;28;20509;-83
2022/07/13 05:21:38;;;;;;;3.95;2.60;;;;;;;23.51;64.47;101600.72;5070900;28;20044;-83
2022/07/13 05:24:06;;;;;;;2.70;2.50;;;;;;;23.54;64.44;101600.03;5087605;28;20232;-83
2022/07/13 05:26:36;;;;;;;2.88;2.67;;;;;;;23.55;64.57;101596.06;5077326;28;20063;-82
2022/07/13 05:29:06;;;;;;;2.60;2.40;;;;;;;23.77;64.01;101599.63;5077486;28;20036;-83
2022/07/13 05:31:36;;;;;;;3.42;2.30;;;;;;;23.92;63.31;101608.50;5076395;28;20044;-83
2022/07/13 05:34:06;;;;;;;3.13;2.15;;;;;;;24.05;62.54;101612.94;5077207;28;20429;-83
2022/07/13 05:36:37;;;;;;;5.53;2.58;;;;;;;23.89;62.74;101601.63;5075942;28;20032;-83
2022/07/13 05:39:05;;;;;;;3.17;2.88;;;;;;;23.80;62.92;101598.13;5094972;28;20043;-83
2022/07/13 05:41:34;;;;;;;3.67;2.70;;;;;;;23.98;62.44;101609.91;5097586;28;20055;-83
2022/07/13 05:44:02;;;;;;;4.45;2.72;;;;;;;24.13;61.62;101612.06;5112565;28;20050;-83
2022/07/13 05:46:31;;;;;;;8.43;2.60;;;;;;;24.28;60.80;101604.13;5058787;28;20059;-84
2022/07/13 05:49:00;;;;;;;3.13;1.65;;;;;;;24.45;59.55;101605.06;5066191;28;20044;-83
2022/07/13 05:51:28;;;;;;;3.53;1.83;;;;;;;24.23;59.88;101613.56;5076616;28;20049;-83
2022/07/13 05:54:05;;;;;;;1.65;1.55;;;;;;;23.84;60.32;101616.63;5056983;28;20047;-83
2022/07/13 05:56:53;;;;;;;3.03;1.85;;;;;;;24.11;59.91;101600.41;5078994;28;20036;-83
2022/07/13 05:59:21;;;;;;;2.75;1.98;;;;;;;24.16;59.53;101607.75;5060681;28;20495;-83
2022/07/13 06:01:49;;;;;;;3.20;2.00;;;;;;;24.48;58.85;101621.16;5079283;28;20506;-83
2022/07/13 06:04:17;;;;;;;2.95;2.05;;;;;;;24.21;59.00;101620.66;5057430;28;20056;-83
2022/07/13 06:06:47;;;;;;;1.63;1.52;;;;;;;24.19;58.83;101620.22;5075355;28;20060;-83
2022/07/13 06:09:15;;;;;;;1.77;1.67;;;;;;;24.22;57.61;101623.13;5074032;28;20490;-83
2022/07/13 06:11:43;;;;;;;1.90;1.80;;;;;;;24.27;57.54;101625.69;5073964;28;20049;-83
2022/07/13 06:14:11;;;;;;;1.83;1.73;;;;;;;24.36;57.64;101628.38;5082747;28;20155;-83
2022/07/13 06:16:39;;;;;;;1.35;1.25;;;;;;;24.68;56.88;101639.78;5085570;28;20051;-83
2022/07/13 06:19:07;;;;;;;3.50;1.83;;;;;;;24.95;55.76;101643.03;5080548;28;20045;-83
2022/07/13 06:21:35;;;;;;;3.22;1.80;;;;;;;24.92;55.57;101649.31;5088619;28;20043;-84
2022/07/13 06:24:04;;;;;;;3.13;1.60;;;;;;;24.86;55.66;101633.09;5074182;28;20044;-83
2022/07/13 06:26:32;;;;;;;2.40;1.70;;;;;;;25.02;55.45;101638.81;5074190;28;20470;-83
2022/07/13 06:29:00;;;;;;;3.05;1.45;;;;;;;24.90;55.72;101642.44;5055454;28;20080;-82
2022/07/13 06:31:28;;;;;;;1.60;1.50;;;;;;;24.85;55.71;101637.91;5088731;28;20044;-84
2022/07/13 06:33:57;;;;;;;1.17;1.08;;;;;;;24.95;54.99;101647.81;5076599;28;20051;-83
2022/07/13 06:36:25;;;;;;;1.52;1.42;;;;;;;25.07;54.66;101642.16;5093825;28;20052;-84
2022/07/13 06:38:53;;;;;;;2.50;1.67;;;;;;;25.03;55.08;101640.44;5076300;28;20506;-88
2022/07/13 06:41:21;;;;;;;1.73;1.50;;;;;;;25.22;54.66;101646.19;5076436;28;20052;-89
2022/07/13 06:43:49;;;;;;;1.60;1.50;;;;;;;25.36;53.67;101650.59;5075599;28;20055;-89
2022/07/13 06:46:17;;;;;;;1.88;1.45;;;;;;;25.61;53.39;101636.50;5076178;28;20501;-88
2022/07/13 06:48:53;;;;;;;2.25;1.48;;;;;;;25.85;52.69;101645.94;5076014;28;20051;-91
2022/07/13 06:51:21;;;;;;;1.13;1.13;;;;;;;25.56;53.10;101648.78;5061841;28;20040;-89
2022/07/13 06:53:49;;;;;;;1.13;1.05;;;;;;;25.57;52.12;101638.38;5059382;28;20482;-88
2022/07/13 06:56:17;;;;;;;1.15;1.08;;;;;;;25.75;51.20;101644.47;5076326;28;20795;-90
2022/07/13 06:58:45;;;;;;;1.20;1.10;;;;;;;26.02;51.00;101639.19;5093831;28;20047;-90
2022/07/13 07:01:13;;;;;;;1.30;1.20;;;;;;;26.16;51.11;101639.53;5055696;28;20081;-89
2022/07/13 07:03:41;;;;;;;1.35;0.98;;;;;;;26.07;50.25;101635.28;5091357;28;20055;-88
2022/07/13 07:06:09;;;;;;;1.10;1.10;;;;;;;26.16;49.96;101641.53;5059342;28;20040;-88
2022/07/13 07:08:37;;;;;;;0.82;0.82;;;;;;;26.07;49.57;101626.88;5093697;28;20490;-87
2022/07/13 07:11:05;;;;;;;2.63;1.08;;;;;;;26.29;49.71;101647.88;5094284;28;20044;-88
2022/07/13 07:13:33;;;;;;;2.45;0.98;;;;;;;26.32;50.13;101640.72;5093691;28;20047;-88
2022/07/13 07:16:01;;;;;;;0.95;0.90;;;;;;;26.38;50.00;101636.47;5075807;28;20055;-88
2022/07/13 07:18:29;;;;;;;2.08;1.00;;;;;;;26.30;49.89;101639.09;5059080;28;20051;-89
2022/07/13 07:21:00;;;;;;;1.40;1.08;;;;;;;26.11;50.06;101639.00;5075694;28;20051;-88
2022/07/13 07:23:28;;;;;;;0.57;0.57;;;;;;;26.27;49.57;101636.22;5093592;28;20402;-89
2022/07/13 07:25:56;;;;;;;2.03;1.08;;;;;;;26.40;49.63;101629.31;5101147;28;20040;-89
2022/07/13 07:28:24;;;;;;;0.75;0.75;;;;;;;26.50;49.82;101633.56;5113855;28;20040;-90
2022/07/13 07:30:52;;;;;;;1.55;0.80;;;;;;;26.58;48.97;101642.94;5095615;28;20059;-89
2022/07/13 07:33:20;;;;;;;0.80;0.80;;;;;;;26.29;49.65;101631.88;5113727;28;20052;-89
2022/07/13 07:35:48;;;;;;;1.38;1.13;;;;;;;26.55;49.24;101638.88;5113479;28;20032;-89
2022/07/13 07:38:16;;;;;;;2.35;1.20;;;;;;;26.74;48.46;101631.72;5078443;28;20043;-88
2022/07/13 07:40:44;;;;;;;1.38;0.98;;;;;;;26.70;48.90;101628.00;5113664;28;20050;-87
2022/07/13 07:43:12;;;;;;;2.63;1.00;;;;;;;26.79;48.34;101617.34;5113505;28;20371;-89
2022/07/13 07:45:40;;;;;;;0.93;0.93;;;;;;;26.67;48.27;101620.28;5113574;28;20494;-89
2022/07/13 07:48:08;;;;;;;1.35;1.30;;;;;;;26.73;47.98;101624.44;5077430;28;20048;-88
2022/07/13 07:50:36;;;;;;;3.00;1.15;;;;;;;26.76;48.15;101618.09;5096628;28;20036;-89
2022/07/13 07:53:04;;;;;;;0.90;0.90;;;;;;;26.79;48.22;101627.78;5072408;28;20051;-89
2022/07/13 07:55:32;;;;;;;0.85;0.85;;;;;;;26.84;48.65;101614.25;5058528;28;20118;-89
2022/07/13 07:58:00;;;;;;;2.13;1.10;;;;;;;27.12;47.02;101628.50;5063889;28;20055;-87
2022/07/13 08:00:29;;;;;;;1.38;1.25;;;;;;;27.16;47.51;101612.53;5083016;28;20047;-90
2022/07/13 08:03:02;;;;;;;1.17;1.05;;;;;;;27.41;46.97;101606.63;5065976;28;20051;-91
2022/07/13 08:05:31;;;;;;;1.17;1.10;;;;;;;27.63;45.53;101625.50;5090190;28;20040;-92
2022/07/13 08:07:59;;;;;;;1.08;0.93;;;;;;;27.63;46.01;101614.28;5044303;28;20053;-92
2022/07/13 08:10:28;;;;;;;2.00;1.00;;;;;;;27.51;44.72;101614.41;5046198;28;20048;-92
2022/07/13 08:12:59;;;;;;;2.55;1.30;;;;;;;27.68;44.04;101615.16;5074248;28;20482;-91
2022/07/13 08:15:27;;;;;;;2.22;1.20;;;;;;;27.58;43.90;101608.97;5057796;28;20419;-86
2022/07/13 08:17:56;;;;;;;1.30;1.20;;;;;;;27.24;44.66;101608.69;5092212;28;20044;-86
2022/07/13 08:20:25;;;;;;;1.65;1.20;;;;;;;27.47;44.71;101599.50;5092329;28;20044;-86
2022/07/13 08:22:54;;;;;;;1.50;1.20;;;;;;;27.66;44.74;101597.88;5092160;28;20048;-87
2022/07/13 08:25:23;;;;;;;1.58;1.35;;;;;;;27.99;43.51;101599.22;5092001;28;20046;-85
2022/07/13 08:27:51;;;;;;;1.40;1.30;;;;;;;27.59;44.45;101590.94;5074230;28;20055;-86
2022/07/13 08:30:20;;;;;;;3.13;1.60;;;;;;;27.80;44.30;101598.09;5091890;28;20048;-86
2022/07/13 08:32:48;;;;;;;4.10;1.30;;;;;;;27.97;44.43;101594.00;5064576;28;20510;-86
2022/07/13 08:41:09;;;;;;;1.40;1.27;;;;;;;28.36;42.82;101589.38;4973877;28;20210;-85
2022/07/13 08:43:37;;;;;;;1.58;1.40;;;;;;;28.26;43.13;101576.78;4990127;28;20055;-84
2022/07/13 08:46:08;;;;;;;1.17;1.17;;;;;;;28.27;43.09;101584.03;5040157;28;20048;-89
2022/07/13 08:48:38;;;;;;;1.00;1.00;;;;;;;28.37;42.78;101582.56;5073757;28;20048;-90
2022/07/13 08:51:06;;;;;;;1.60;1.38;;;;;;;28.44;41.85;101577.03;5079348;28;20053;-89
2022/07/13 08:53:35;;;;;;;1.85;1.40;;;;;;;28.46;40.43;101579.47;5072221;28;20047;-92
2022/07/13 08:56:03;;;;;;;1.40;1.30;;;;;;;28.64;40.39;101571.28;5057141;28;20055;-87
2022/07/13 08:58:31;;;;;;;2.38;1.38;;;;;;;28.53;40.32;101586.00;5073391;28;20047;-92
2022/07/13 09:00:59;;;;;;;1.13;1.13;;;;;;;28.46;40.59;101585.09;5053713;28;20048;-92
2022/07/13 09:03:33;;;;;;;1.23;1.20;;;;;;;28.56;39.66;101576.81;5036302;28;20494;-89
2022/07/13 09:06:01;;;;;;;1.13;1.10;;;;;;;28.58;39.75;101587.69;5053612;28;20052;-91
2022/07/13 09:08:29;;;;;;;2.08;1.48;;;;;;;28.61;38.81;101595.38;5087033;28;20043;-91
2022/07/13 09:10:59;;;;;;;1.42;1.25;;;;;;;28.73;39.88;101588.69;5053509;28;20432;-91
2022/07/13 09:13:41;;;;;;;2.17;1.80;;;;;;;28.99;39.06;101577.78;5085735;28;20114;-89
2022/07/13 09:16:20;;;;;;;1.60;1.30;;;;;;;28.98;39.18;101576.94;5109506;28;20054;-91
2022/07/13 09:19:00;;;;;;;1.70;1.60;;;;;;;29.07;39.26;101574.66;5093859;28;20062;-91
2022/07/13 09:21:30;;;;;;;2.28;1.55;;;;;;;29.14;39.02;101581.56;5077505;28;20042;-92
2022/07/13 09:24:04;;;;;;;1.83;1.30;;;;;;;29.19;38.83;101573.59;5069098;28;20040;-89
2022/07/13 09:26:44;;;;;;;2.35;1.40;;;;;;;29.37;39.33;101576.59;5088586;28;20499;-82
2022/07/13 09:29:13;;;;;;;1.77;1.67;;;;;;;29.35;38.19;101589.44;5111761;28;20043;-82
2022/07/13 09:31:52;;;;;;;1.17;1.15;;;;;;;29.34;38.83;101582.19;5111591;28;20043;-82
2022/07/13 09:34:42;;;;;;;1.23;1.17;;;;;;;29.32;38.41;101578.97;5111771;28;20398;-82
2022/07/13 09:37:11;;;;;;;3.80;1.63;;;;;;;29.15;38.98;101578.38;5111645;28;20044;-83
2022/07/13 09:40:07;;;;;;;1.45;1.35;;;;;;;29.19;38.72;101576.41;5111632;28;20047;-83
2022/07/13 09:42:40;;;;;;;4.03;1.33;;;;;;;29.29;38.45;101563.63;5093414;28;20051;-83
2022/07/13 09:47:58;;;;;;;1.60;1.20;;;;;;;29.54;37.52;101560.28;5111498;28;20043;-82
2022/07/13 09:50:40;;;;;;;1.50;1.10;;;;;;;29.73;37.08;101567.72;5097915;28;20071;-83
2022/07/13 09:53:30;;;;;;;1.85;1.60;;;;;;;29.74;36.49;101571.31;5086084;28;20044;-82
2022/07/13 09:56:00;;;;;;;2.13;1.52;;;;;;;29.87;36.51;101566.19;5091276;28;20521;-82
2022/07/13 09:58:35;;;;;;;1.52;1.42;;;;;;;29.97;36.84;101561.84;5091007;28;20052;-82
2022/07/13 10:01:04;;;;;;;1.73;1.27;;;;;;;30.08;37.42;101551.44;5091241;28;20074;-82
2022/07/13 10:03:32;;;;;;;2.33;1.38;;;;;;;30.15;37.40;101553.53;5061066;28;20510;-80
2022/07/13 10:06:01;;;;;;;1.60;1.50;;;;;;;30.26;37.11;101551.56;5050983;28;20487;-82
2022/07/13 10:08:30;;;;;;;3.03;1.52;;;;;;;30.38;37.33;101558.09;5050871;28;20579;-81
2022/07/13 10:10:59;;;;;;;1.60;1.50;;;;;;;30.41;36.83;101552.47;5050236;28;20045;-81
2022/07/13 10:13:27;;;;;;;1.48;1.38;;;;;;;30.67;36.36;101561.06;5053198;28;20041;-82
2022/07/13 10:15:55;;;;;;;1.45;1.35;;;;;;;30.82;36.31;101559.16;5054605;28;20051;-82
2022/07/13 10:18:31;;;;;;;1.73;1.63;;;;;;;30.57;36.05;101563.47;5054004;28;20056;-82
2022/07/13 10:21:24;;;;;;;1.75;1.60;;;;;;;30.60;35.87;101559.03;5050013;28;20064;-82
2022/07/13 10:23:52;;;;;;;1.92;1.40;;;;;;;30.76;35.84;101567.22;5053357;28;20057;-80
2022/07/13 10:26:25;;;;;;;1.60;1.50;;;;;;;30.86;35.82;101570.47;5043489;28;20052;-83
2022/07/13 10:29:10;;;;;;;1.83;1.67;;;;;;;30.75;35.70;101565.59;5052996;28;20045;-83
2022/07/13 10:31:41;;;;;;;2.05;1.08;;;;;;;30.82;35.76;101550.66;5054248;28;20377;-83
2022/07/13 10:34:11;;;;;;;1.10;1.10;;;;;;;30.84;35.84;101562.41;5052899;28;20045;-82
2022/07/13 10:36:52;;;;;;;1.30;1.20;;;;;;;31.09;35.53;101561.66;5054286;28;20062;-82
2022/07/13 10:39:25;;;;;;;1.42;1.33;;;;;;;30.98;34.98;101541.84;5052601;28;20049;-82
2022/07/13 10:42:13;;;;;;;8.25;1.55;;;;;;;31.08;34.94;101546.72;5052186;28;20392;-81
2022/07/13 10:44:43;;;;;;;1.52;1.42;;;;;;;31.19;34.35;101560.91;5053233;28;20040;-82
2022/07/13 10:47:13;;;;;;;1.55;1.45;;;;;;;31.21;34.11;101546.34;5053134;28;20062;-82
2022/07/13 10:49:51;;;;;;;1.20;1.10;;;;;;;31.21;34.09;101543.50;5051579;28;20095;-81
2022/07/13 10:52:21;;;;;;;5.35;1.48;;;;;;;31.26;34.34;101543.13;5041965;28;20041;-82
2022/07/13 10:57:35;;;;;;;1.88;1.60;;;;;;;31.59;33.70;101529.03;5053612;28;20517;-81
2022/07/13 11:00:18;;;;;;;1.30;1.17;;;;;;;31.52;34.13;101521.34;5052206;28;20056;-82
2022/07/13 11:03:04;;;;;;;0.98;0.98;;;;;;;31.77;33.91;101523.41;5056397;28;20045;-82
2022/07/13 11:05:36;;;;;;;1.20;1.13;;;;;;;32.02;32.88;101528.25;5093582;28;20051;-82
2022/07/13 11:08:12;;;;;;;1.63;1.52;;;;;;;31.80;32.99;101514.09;5075748;28;20044;-83
2022/07/13 11:10:41;;;;;;;1.27;1.27;;;;;;;31.51;32.87;101519.75;5093446;28;20048;-82
2022/07/13 11:13:24;;;;;;;1.90;1.70;;;;;;;31.43;33.71;101527.44;5075474;28;20371;-83
2022/07/13 11:15:54;;;;;;;2.20;2.07;;;;;;;31.58;33.50;101522.59;5093580;28;20490;-83
2022/07/13 11:18:24;;;;;;;1.50;1.40;;;;;;;31.74;33.36;101524.19;5093322;28;20067;-83
2022/07/13 11:21:14;;;;;;;1.83;1.73;;;;;;;31.93;33.24;101516.53;5093326;28;20044;-83
2022/07/13 11:26:45;;;;;;;2.38;1.60;;;;;;;32.01;33.46;101501.94;5093310;28;20044;-83
2022/07/13 11:29:33;;;;;;;1.55;1.45;;;;;;;31.85;33.56;101499.56;5093126;28;20040;-84
2022/07/13 11:32:03;;;;;;;2.42;1.52;;;;;;;31.94;33.79;101487.00;5093118;28;20051;-81
2022/07/13 11:34:31;;;;;;;4.30;1.50;;;;;;;32.08;33.67;101484.16;5092969;28;20047;-82
2022/07/13 11:37:01;;;;;;;1.77;1.67;;;;;;;32.13;33.20;101485.75;5092902;28;20047;-81
2022/07/13 11:39:33;;;;;;;1.65;1.17;;;;;;;32.25;32.78;101476.81;5092801;28;20414;-82
2022/07/13 11:42:07;;;;;;;1.60;1.50;;;;;;;32.30;32.96;101467.09;5074965;28;20403;-82
2022/07/13 11:44:36;;;;;;;2.25;1.58;;;;;;;32.52;32.46;101484.00;5092920;28;20047;-82
2022/07/13 11:47:06;;;;;;;1.30;1.20;;;;;;;32.53;32.88;101475.13;5092934;28;20052;-82
2022/07/13 11:49:52;;;;;;;1.65;1.40;;;;;;;32.74;32.41;101486.75;5092659;28;20047;-82
2022/07/13 11:52:22;;;;;;;1.58;1.45;;;;;;;32.54;32.09;101475.94;5080934;28;20036;-81